Flugwetter

[source: ADDS]
METAR
LOWL 211150Z VRB02KT CAVOK 25/15 Q1013 NOSIG =
TAF LOWL 211115Z 2112/2212 25005KT CAVOK TX28/2115Z TN13/2206Z BECMG 2117/2119 28012KT 9999 -RA BKN050 TEMPO 2118/2203 27020G30KT SHRA BKN020 TEMPO 2203/2212 29015G25KT NSW SCT050
TAF
TAF LOWL 211115Z 2112/2212 25005KT CAVOK TX28/2115Z TN13/2206Z BECMG 2117/2119 28012KT 9999 -RA BKN050 TEMPO 2118/2203 27020G30KT SHRA BKN020 TEMPO 2203/2212 29015G25KT NSW SCT050 =